Time;durP1;ratioP1;P1;durP2;ratioP2;P2;SDS_P1;SDS_P2;PMS_P1;PMS_P2;Temp;Humidity;BMP_temperature;BMP_pressure;BME280_temperature;BME280_humidity;BME280_pressure;Samples;Min_cycle;Max_cycle;Signal;HPM_P1;HPM_P2
2021/12/30 00:01:15;;;;;;;82.25;34.35;;;;;;;-2.79;73.85;101304.94;1777469;80;25957;-59
2021/12/30 00:03:43;;;;;;;83.62;32.93;;;;;;;-2.82;74.05;101301.05;1776212;80;25687;-62
2021/12/30 00:06:11;;;;;;;79.53;34.83;;;;;;;-2.86;74.55;101305.97;1774113;80;27445;-61
2021/12/30 00:08:38;;;;;;;83.37;33.33;;;;;;;-2.91;74.72;101299.96;1746275;82;25751;-61
2021/12/30 00:11:07;;;;;;;78.22;30.00;;;;;;;-2.90;74.84;101312.23;1748489;80;25747;-61
2021/12/30 00:13:35;;;;;;;81.67;31.60;;;;;;;-2.88;75.09;101311.28;1776886;80;25755;-61
2021/12/30 00:16:02;;;;;;;71.47;28.52;;;;;;;-2.91;74.99;101313.98;1776721;80;25703;-61
2021/12/30 00:18:29;;;;;;;77.00;31.60;;;;;;;-2.93;75.33;101310.97;1777111;80;28337;-61
2021/12/30 00:20:56;;;;;;;83.22;28.07;;;;;;;-2.96;75.10;101315.87;1776943;80;25763;-61
2021/12/30 00:23:23;;;;;;;84.55;30.48;;;;;;;-2.93;75.04;101325.45;1776967;80;25691;-61
2021/12/30 00:25:50;;;;;;;72.08;28.12;;;;;;;-2.96;75.02;101326.86;1776914;80;26240;-61
2021/12/30 00:28:24;;;;;;;70.25;30.68;;;;;;;-2.95;75.19;101324.19;1777459;80;25721;-62
2021/12/30 00:30:54;;;;;;;81.12;30.72;;;;;;;-2.88;75.37;101324.45;1776133;80;27474;-62
2021/12/30 00:33:22;;;;;;;78.50;30.10;;;;;;;-2.85;75.38;101323.50;1775969;80;25728;-62
2021/12/30 00:35:51;;;;;;;78.17;28.77;;;;;;;-2.82;75.36;101318.17;1775587;80;25795;-62
2021/12/30 00:38:20;;;;;;;65.37;27.15;;;;;;;-2.86;75.50;101321.33;1775798;80;25818;-61
2021/12/30 00:40:48;;;;;;;72.78;27.20;;;;;;;-2.93;75.42;101318.88;1775824;80;25714;-62
2021/12/30 00:43:15;;;;;;;73.40;28.30;;;;;;;-2.93;75.81;101319.75;1778752;80;27457;-61
2021/12/30 00:45:42;;;;;;;75.00;30.35;;;;;;;-3.03;75.61;101320.41;1769376;81;27277;-61
2021/12/30 00:48:10;;;;;;;76.05;29.30;;;;;;;-3.02;76.08;101315.55;1773338;80;25779;-61
2021/12/30 00:50:40;;;;;;;75.05;28.35;;;;;;;-2.92;76.41;101328.07;1769484;81;25715;-62
2021/12/30 00:53:09;;;;;;;70.00;29.27;;;;;;;-2.86;76.11;101326.59;1766723;80;25749;-61
2021/12/30 00:55:37;;;;;;;71.57;27.87;;;;;;;-2.91;75.88;101332.41;1767124;81;27425;-61
2021/12/30 00:58:05;;;;;;;81.35;29.98;;;;;;;-2.86;76.33;101321.77;1743629;80;25745;-61
2021/12/30 01:00:34;;;;;;;66.15;29.18;;;;;;;-2.73;76.62;101323.22;1747149;79;26450;-61
2021/12/30 01:03:01;;;;;;;64.22;28.20;;;;;;;-2.64;76.58;101314.20;1767277;81;26087;-62
2021/12/30 01:05:30;;;;;;;83.30;30.40;;;;;;;-2.56;76.52;101322.81;1767361;81;25802;-61
2021/12/30 01:07:57;;;;;;;72.20;27.95;;;;;;;-2.47;76.56;101322.16;1767136;81;27457;-62
2021/12/30 01:10:25;;;;;;;77.65;31.02;;;;;;;-2.44;75.99;101323.38;1767113;81;26344;-61
2021/12/30 01:13:04;;;;;;;73.33;27.55;;;;;;;-2.50;75.99;101323.55;1767377;81;25643;-61
2021/12/30 01:15:35;;;;;;;82.17;31.50;;;;;;;-2.56;75.52;101328.08;1781164;79;25818;-62
2021/12/30 01:18:19;;;;;;;64.75;25.72;;;;;;;-2.55;75.77;101332.88;1795475;79;25726;-61
2021/12/30 01:20:24;;;;;;;61.85;25.95;;;;;;;-2.54;75.65;101335.47;1791897;79;27505;-61
2021/12/30 01:22:53;;;;;;;59.27;25.82;;;;;;;-2.62;75.75;101335.27;1753558;81;25708;-60
2021/12/30 01:25:21;;;;;;;55.43;22.62;;;;;;;-2.73;75.61;101334.19;1753541;81;25936;-60
2021/12/30 01:27:48;;;;;;;50.20;19.92;;;;;;;-2.85;75.86;101337.55;1745124;80;26134;-60
2021/12/30 01:30:19;;;;;;;64.85;23.05;;;;;;;-2.96;75.93;101340.88;1736067;82;25772;-60
2021/12/30 01:32:47;;;;;;;52.65;21.45;;;;;;;-2.98;76.14;101346.63;1735528;82;28199;-60
2021/12/30 01:35:22;;;;;;;48.78;21.73;;;;;;;-3.02;76.23;101344.52;1735699;82;25719;-61
2021/12/30 01:37:43;;;;;;;51.08;22.35;;;;;;;-3.10;76.73;101339.88;1734135;82;25846;-61
2021/12/30 01:40:14;;;;;;;54.60;21.02;;;;;;;-3.19;76.87;101341.39;1735394;82;26185;-60
2021/12/30 01:42:41;;;;;;;52.50;21.25;;;;;;;-3.25;77.06;101338.45;1740817;82;25825;-60
2021/12/30 01:45:11;;;;;;;59.90;25.40;;;;;;;-3.26;77.29;101343.75;1747003;82;27449;-61
2021/12/30 01:47:46;;;;;;;59.13;24.35;;;;;;;-3.29;77.18;101340.75;1767809;80;25942;-61
2021/12/30 01:50:09;;;;;;;55.48;23.70;;;;;;;-3.24;77.28;101344.12;1783729;80;25719;-61
2021/12/30 01:52:36;;;;;;;50.67;20.85;;;;;;;-3.22;77.37;101336.19;1786516;80;25826;-62
2021/12/30 01:55:05;;;;;;;54.55;22.20;;;;;;;-3.27;77.53;101342.87;1787663;80;25818;-61
2021/12/30 01:57:32;;;;;;;53.63;21.15;;;;;;;-3.35;77.79;101342.17;1787300;80;27445;-61
2021/12/30 02:00:00;;;;;;;56.88;23.98;;;;;;;-3.42;77.88;101346.72;1787164;80;27250;-60
2021/12/30 02:02:27;;;;;;;44.93;20.55;;;;;;;-3.46;77.84;101356.45;1786598;80;25530;-61
2021/12/30 02:04:55;;;;;;;57.67;24.05;;;;;;;-3.43;78.31;101354.19;1787340;80;25558;-60
2021/12/30 02:07:22;;;;;;;52.93;22.13;;;;;;;-3.50;78.17;101356.08;1786841;80;26238;-60
2021/12/30 02:09:50;;;;;;;55.65;23.50;;;;;;;-3.51;78.57;101349.55;1787179;80;27479;-61
2021/12/30 02:12:17;;;;;;;60.75;24.32;;;;;;;-3.56;78.31;101348.75;1783619;80;25822;-61
2021/12/30 02:14:44;;;;;;;50.92;22.93;;;;;;;-3.54;78.67;101350.91;1756120;81;25634;-60
2021/12/30 02:17:11;;;;;;;49.67;22.60;;;;;;;-3.52;78.72;101360.50;1756084;81;26408;-61
2021/12/30 02:19:42;;;;;;;58.48;24.30;;;;;;;-3.54;78.89;101358.34;1756135;81;25742;-60
2021/12/30 02:22:11;;;;;;;58.30;23.12;;;;;;;-3.58;78.90;101363.27;1756144;81;27498;-60
2021/12/30 02:24:51;;;;;;;65.20;26.10;;;;;;;-3.61;79.22;101364.63;1756091;81;25781;-60
2021/12/30 02:27:20;;;;;;;57.20;23.30;;;;;;;-3.63;79.19;101365.13;1755965;81;25756;-61
2021/12/30 02:29:46;;;;;;;69.72;27.10;;;;;;;-3.63;79.21;101363.81;1756158;81;25765;-61
2021/12/30 02:32:13;;;;;;;68.52;25.90;;;;;;;-3.60;79.19;101365.05;1744687;81;25738;-60
2021/12/30 02:34:40;;;;;;;60.48;26.30;;;;;;;-3.54;79.24;101360.12;1744519;82;27484;-61
2021/12/30 02:37:09;;;;;;;64.10;26.00;;;;;;;-3.57;78.96;101358.42;1744080;82;25968;-62
2021/12/30 02:39:36;;;;;;;69.92;28.32;;;;;;;-3.49;79.17;101358.24;1744331;82;25801;-61
2021/12/30 02:42:08;;;;;;;61.90;28.12;;;;;;;-3.51;78.90;101359.60;1750848;80;25604;-61
2021/12/30 02:44:38;;;;;;;66.05;26.65;;;;;;;-3.50;78.94;101360.02;1775183;80;25732;-62
2021/12/30 02:47:05;;;;;;;62.73;27.52;;;;;;;-3.56;78.76;101371.11;1765974;80;28174;-61
2021/12/30 02:49:32;;;;;;;76.65;29.63;;;;;;;-3.60;79.04;101361.10;1730988;82;25904;-62
2021/12/30 02:52:00;;;;;;;64.85;27.20;;;;;;;-3.63;79.00;101366.45;1741600;80;25714;-61
2021/12/30 02:54:27;;;;;;;62.38;28.07;;;;;;;-3.60;79.04;101372.94;1761582;81;26257;-61
2021/12/30 02:56:56;;;;;;;62.95;27.37;;;;;;;-3.57;79.01;101371.57;1761299;81;25781;-61
2021/12/30 02:59:23;;;;;;;57.43;26.17;;;;;;;-3.53;78.99;101379.80;1761564;81;28230;-61
2021/12/30 03:01:53;;;;;;;63.38;27.13;;;;;;;-3.55;78.86;101375.05;1761168;80;25778;-61
2021/12/30 03:04:20;;;;;;;67.03;28.15;;;;;;;-3.62;78.77;101379.98;1761244;81;25669;-61
2021/12/30 03:06:50;;;;;;;55.58;23.57;;;;;;;-3.64;79.00;101392.32;1761508;81;25695;-61
2021/12/30 03:09:17;;;;;;;58.05;25.35;;;;;;;-3.70;79.03;101386.73;1760470;81;25809;-61
2021/12/30 03:11:44;;;;;;;59.00;26.40;;;;;;;-3.74;79.30;101391.61;1761421;81;27448;-61
2021/12/30 03:14:11;;;;;;;64.65;26.05;;;;;;;-3.78;79.30;101390.81;1761124;81;25870;-61
2021/12/30 03:16:38;;;;;;;67.35;29.02;;;;;;;-3.82;79.44;101383.89;1761502;81;25771;-61
2021/12/30 03:19:05;;;;;;;55.10;25.75;;;;;;;-3.82;79.46;101388.27;1761384;81;25624;-61
2021/12/30 03:21:33;;;;;;;60.70;27.30;;;;;;;-3.84;79.77;101385.67;1761446;81;25794;-61
2021/12/30 03:24:06;;;;;;;64.90;27.77;;;;;;;-3.90;79.77;101389.75;1761643;81;27431;-60
2021/12/30 03:26:35;;;;;;;59.18;24.43;;;;;;;-3.94;79.87;101399.42;1761215;81;27280;-61
2021/12/30 03:29:04;;;;;;;65.78;27.13;;;;;;;-3.93;79.98;101397.67;1759694;79;25676;-61
2021/12/30 03:31:31;;;;;;;52.73;24.20;;;;;;;-3.97;79.95;101402.55;1762519;80;26113;-60
2021/12/30 03:33:58;;;;;;;60.10;25.15;;;;;;;-3.96;80.05;101397.72;1761524;81;25787;-60
2021/12/30 03:36:25;;;;;;;59.98;26.62;;;;;;;-3.98;80.00;101400.81;1761559;81;27472;-61
2021/12/30 03:38:56;;;;;;;63.60;24.65;;;;;;;-3.99;80.09;101403.05;1761195;81;25814;-61
2021/12/30 03:41:27;;;;;;;56.58;23.25;;;;;;;-3.98;80.07;101406.07;1761513;81;25814;-61
2021/12/30 03:43:59;;;;;;;61.63;25.45;;;;;;;-3.97;80.12;101407.81;1731168;81;26135;-61
2021/12/30 03:46:26;;;;;;;62.73;25.75;;;;;;;-3.95;79.98;101413.91;1730116;82;25654;-61
2021/12/30 03:48:54;;;;;;;54.50;22.42;;;;;;;-3.96;79.78;101413.48;1778367;80;28150;-60
2021/12/30 03:51:24;;;;;;;49.48;22.25;;;;;;;-3.92;79.88;101423.07;1778405;80;26628;-61
2021/12/30 03:53:57;;;;;;;56.18;24.37;;;;;;;-3.92;79.67;101423.07;1760533;81;25770;-60
2021/12/30 03:56:28;;;;;;;61.15;26.82;;;;;;;-3.88;79.64;101429.14;1760826;81;26133;-60
2021/12/30 03:58:55;;;;;;;54.98;23.20;;;;;;;-3.82;79.65;101429.91;1760748;81;25786;-61
2021/12/30 04:01:26;;;;;;;58.33;26.25;;;;;;;-3.75;79.39;101423.20;1760516;81;27417;-61
2021/12/30 04:03:54;;;;;;;52.17;22.30;;;;;;;-3.74;79.45;101430.20;1760618;81;26668;-61
2021/12/30 04:06:21;;;;;;;57.15;26.17;;;;;;;-3.69;79.16;101425.71;1760531;81;25689;-61
2021/12/30 04:08:48;;;;;;;59.08;25.97;;;;;;;-3.67;79.07;101431.36;1760574;81;25741;-61
2021/12/30 04:11:15;;;;;;;64.58;27.45;;;;;;;-3.64;78.91;101431.77;1760546;81;26188;-61
2021/12/30 04:13:44;;;;;;;58.17;26.48;;;;;;;-3.58;78.92;101438.65;1760378;81;27478;-61
2021/12/30 04:16:12;;;;;;;58.75;26.80;;;;;;;-3.55;78.67;101434.22;1760151;81;25797;-61
2021/12/30 04:18:38;;;;;;;49.83;25.08;;;;;;;-3.48;78.73;101440.21;1760769;81;26556;-60
2021/12/30 04:21:05;;;;;;;51.45;24.98;;;;;;;-3.46;78.72;101444.57;1760434;81;25784;-61
2021/12/30 04:23:32;;;;;;;61.28;27.48;;;;;;;-3.40;78.70;101436.98;1760704;81;25710;-60
2021/12/30 04:25:59;;;;;;;58.08;26.15;;;;;;;-3.31;78.78;101442.06;1760372;81;27465;-60
2021/12/30 04:28:26;;;;;;;59.75;27.10;;;;;;;-3.27;78.42;101449.91;1760717;81;25754;-61
2021/12/30 04:30:53;;;;;;;48.80;25.48;;;;;;;-3.21;78.58;101455.03;1760528;81;25679;-61
2021/12/30 04:33:23;;;;;;;67.30;28.05;;;;;;;-3.13;78.31;101453.11;1761465;81;25814;-61
2021/12/30 04:35:56;;;;;;;64.07;28.73;;;;;;;-3.19;77.11;101460.70;1761581;81;25790;-61
2021/12/30 04:38:20;;;;;;;53.90;25.70;;;;;;;-3.19;77.43;101465.09;1760911;81;27516;-61
2021/12/30 04:40:47;;;;;;;50.23;24.02;;;;;;;-3.20;76.92;101461.60;1761496;81;25751;-61
2021/12/30 04:43:13;;;;;;;64.35;28.50;;;;;;;-3.22;77.04;101465.14;1761595;81;25492;-62
2021/12/30 04:45:42;;;;;;;51.60;25.08;;;;;;;-3.23;77.20;101480.08;1761583;81;25742;-62
2021/12/30 04:48:10;;;;;;;61.08;27.27;;;;;;;-3.22;76.72;101480.50;1762609;81;25769;-61
2021/12/30 04:50:41;;;;;;;59.77;27.15;;;;;;;-3.23;77.02;101487.12;1763167;81;27473;-62
2021/12/30 04:53:08;;;;;;;54.75;25.77;;;;;;;-3.16;77.58;101483.00;1761741;81;25726;-62
2021/12/30 04:55:38;;;;;;;66.92;27.87;;;;;;;-3.06;77.75;101488.96;1761588;81;25746;-61
2021/12/30 04:58:05;;;;;;;58.28;27.62;;;;;;;-2.96;77.98;101489.62;1761576;81;25543;-61
2021/12/30 05:00:34;;;;;;;47.55;23.45;;;;;;;-2.87;77.70;101495.16;1761635;81;26555;-61
2021/12/30 05:03:13;;;;;;;52.65;24.65;;;;;;;-2.85;76.86;101497.30;1761862;81;28202;-61
2021/12/30 05:05:46;;;;;;;55.50;25.62;;;;;;;-2.91;76.06;101506.64;1761671;81;27267;-61
2021/12/30 05:08:17;;;;;;;64.75;25.05;;;;;;;-3.03;75.52;101509.09;1761101;81;25735;-61
2021/12/30 05:10:44;;;;;;;54.98;24.65;;;;;;;-3.11;75.61;101517.12;1761619;81;25797;-61
2021/12/30 05:13:12;;;;;;;59.48;26.02;;;;;;;-3.10;76.36;101516.69;1761999;81;25749;-60
2021/12/30 05:15:43;;;;;;;55.52;25.45;;;;;;;-3.04;76.61;101511.30;1761595;81;27478;-60
2021/12/30 05:18:14;;;;;;;58.92;27.98;;;;;;;-3.04;76.31;101504.72;1761761;81;25742;-60
2021/12/30 05:20:42;;;;;;;62.55;27.80;;;;;;;-2.98;76.79;101507.21;1761445;81;25762;-60
2021/12/30 05:23:12;;;;;;;54.30;26.48;;;;;;;-2.90;76.52;101506.60;1761912;81;26096;-60
2021/12/30 05:25:41;;;;;;;57.48;26.05;;;;;;;-2.92;75.64;101512.38;1761547;81;25714;-60
2021/12/30 05:28:08;;;;;;;58.95;24.52;;;;;;;-2.92;76.03;101516.75;1761919;81;28157;-60
2021/12/30 05:30:40;;;;;;;61.08;25.30;;;;;;;-2.92;75.84;101514.13;1761681;81;25796;-61
2021/12/30 05:33:07;;;;;;;67.87;29.32;;;;;;;-2.89;76.03;101528.09;1760630;81;25770;-61
2021/12/30 05:35:34;;;;;;;53.75;23.20;;;;;;;-2.81;76.01;101532.33;1767705;80;25742;-61
2021/12/30 05:38:02;;;;;;;52.40;24.80;;;;;;;-2.79;75.40;101537.12;1775114;80;25707;-61
2021/12/30 05:40:34;;;;;;;68.52;27.77;;;;;;;-2.85;75.53;101528.46;1775086;80;27463;-60
2021/12/30 05:43:02;;;;;;;63.25;28.45;;;;;;;-2.84;75.87;101542.05;1765882;80;25667;-60
2021/12/30 05:45:29;;;;;;;65.00;29.23;;;;;;;-2.76;76.25;101559.45;1760582;81;25699;-59
2021/12/30 05:47:56;;;;;;;66.10;26.85;;;;;;;-2.70;76.17;101566.79;1771255;80;25778;-61
2021/12/30 05:50:27;;;;;;;64.22;27.65;;;;;;;-2.65;76.01;101560.11;1780507;80;25646;-61
2021/12/30 05:52:55;;;;;;;62.98;29.05;;;;;;;-2.64;75.96;101567.08;1766069;80;26871;-60
2021/12/30 05:55:22;;;;;;;62.23;26.40;;;;;;;-2.61;75.77;101568.81;1760447;81;25777;-61
2021/12/30 05:57:54;;;;;;;58.38;26.85;;;;;;;-2.61;75.78;101574.93;1760561;81;25766;-61
2021/12/30 06:00:20;;;;;;;55.98;26.02;;;;;;;-2.66;75.44;101572.86;1759572;81;25702;-60
2021/12/30 06:02:47;;;;;;;60.80;26.00;;;;;;;-2.59;75.67;101588.06;1760554;81;25704;-60
2021/12/30 06:05:14;;;;;;;57.85;26.93;;;;;;;-2.58;75.80;101587.17;1760474;81;27541;-60
2021/12/30 06:07:42;;;;;;;60.60;26.70;;;;;;;-2.57;75.51;101598.12;1760441;81;25866;-61
2021/12/30 06:10:13;;;;;;;52.35;24.35;;;;;;;-2.60;75.12;101600.38;1760124;81;25788;-61
2021/12/30 06:12:43;;;;;;;52.50;24.90;;;;;;;-2.62;74.89;101612.70;1760489;81;25804;-61
2021/12/30 06:15:14;;;;;;;71.50;28.05;;;;;;;-2.72;74.20;101612.47;1760578;81;25764;-61
2021/12/30 06:17:43;;;;;;;60.75;26.90;;;;;;;-2.85;73.99;101611.84;1760114;81;27486;-62
2021/12/30 06:20:13;;;;;;;66.22;28.73;;;;;;;-2.91;74.21;101610.19;1759596;81;25738;-61
2021/12/30 06:22:43;;;;;;;68.47;29.57;;;;;;;-2.91;74.68;101609.33;1760335;81;25766;-60
2021/12/30 06:25:11;;;;;;;69.05;30.50;;;;;;;-2.86;74.92;101612.30;1760914;81;25783;-61
2021/12/30 06:27:44;;;;;;;67.65;30.25;;;;;;;-2.79;75.28;101617.44;1760429;81;25711;-61
2021/12/30 06:30:14;;;;;;;76.72;30.72;;;;;;;-2.68;75.40;101618.96;1760363;81;28167;-61
2021/12/30 06:32:44;;;;;;;81.87;32.15;;;;;;;-2.60;75.39;101624.55;1750350;81;25757;-61
2021/12/30 06:35:11;;;;;;;70.60;31.12;;;;;;;-2.52;75.66;101630.53;1735145;82;25758;-61
2021/12/30 06:37:40;;;;;;;66.30;32.33;;;;;;;-2.47;75.62;101626.02;1735500;82;26115;-61
2021/12/30 06:40:10;;;;;;;64.67;28.17;;;;;;;-2.44;74.93;101618.50;1735079;82;25865;-60
2021/12/30 06:42:37;;;;;;;78.28;31.10;;;;;;;-2.44;74.77;101627.29;1735624;82;27642;-61
2021/12/30 06:45:08;;;;;;;65.32;28.55;;;;;;;-2.44;74.57;101641.78;1735259;82;25732;-61
2021/12/30 06:47:35;;;;;;;56.58;26.40;;;;;;;-2.46;74.41;101651.91;1736080;82;25458;-62
2021/12/30 06:50:03;;;;;;;61.37;26.25;;;;;;;-2.45;74.34;101653.66;1736972;82;26173;-61
2021/12/30 06:52:31;;;;;;;53.00;25.27;;;;;;;-2.45;74.30;101648.38;1736215;82;25943;-61
2021/12/30 06:54:58;;;;;;;52.67;22.98;;;;;;;-2.40;74.36;101647.39;1735593;82;28208;-60
2021/12/30 06:57:28;;;;;;;58.42;25.30;;;;;;;-2.37;74.40;101642.50;1735224;82;25845;-60
2021/12/30 06:59:55;;;;;;;55.08;23.77;;;;;;;-2.31;74.26;101645.03;1735270;82;25703;-60
2021/12/30 07:02:23;;;;;;;51.88;22.48;;;;;;;-2.31;74.01;101643.72;1735084;82;25738;-60
2021/12/30 07:04:49;;;;;;;59.75;25.52;;;;;;;-2.34;73.10;101649.04;1735237;82;27302;-61
2021/12/30 07:07:16;;;;;;;60.70;24.80;;;;;;;-2.45;72.53;101658.92;1735418;82;27476;-61
2021/12/30 07:09:47;;;;;;;64.47;25.80;;;;;;;-2.57;72.83;101664.88;1735118;82;25683;-61
2021/12/30 07:12:16;;;;;;;61.50;25.82;;;;;;;-2.61;73.00;101673.72;1735136;82;25774;-61
2021/12/30 07:14:43;;;;;;;51.28;22.60;;;;;;;-2.70;72.70;101667.31;1735367;82;25719;-61
2021/12/30 07:17:10;;;;;;;57.23;24.87;;;;;;;-2.77;72.99;101673.59;1735380;82;25787;-60
2021/12/30 07:19:37;;;;;;;56.63;21.42;;;;;;;-2.85;72.96;101688.20;1735257;82;27473;-62
2021/12/30 07:22:06;;;;;;;58.00;23.77;;;;;;;-2.95;73.16;101694.53;1735026;82;25792;-59
2021/12/30 07:24:34;;;;;;;56.80;23.80;;;;;;;-3.05;73.47;101695.14;1735216;82;25789;-60
2021/12/30 07:27:01;;;;;;;57.93;26.75;;;;;;;-3.10;73.75;101697.85;1735578;82;26161;-60
2021/12/30 07:29:28;;;;;;;58.02;23.65;;;;;;;-3.18;74.04;101683.49;1735420;82;27137;-61
2021/12/30 07:31:55;;;;;;;52.30;22.58;;;;;;;-3.09;74.16;101693.02;1735061;82;27492;-61
2021/12/30 07:34:21;;;;;;;51.92;22.58;;;;;;;-3.05;74.19;101688.10;1758630;81;25818;-60
2021/12/30 07:36:48;;;;;;;61.23;28.07;;;;;;;-3.06;74.04;101695.61;1760558;81;25710;-60
2021/12/30 07:39:15;;;;;;;66.85;28.07;;;;;;;-3.04;74.25;101699.52;1760558;81;25743;-60
2021/12/30 07:41:42;;;;;;;59.05;25.90;;;;;;;-2.96;74.50;101708.61;1758593;81;25841;-61
2021/12/30 07:44:11;;;;;;;61.20;25.27;;;;;;;-2.88;74.90;101712.84;1729997;82;27500;-60
2021/12/30 07:46:40;;;;;;;63.70;26.02;;;;;;;-2.72;75.17;101715.19;1730732;80;25732;-61
2021/12/30 07:49:07;;;;;;;52.20;24.90;;;;;;;-2.59;74.87;101710.13;1775343;80;25767;-61
2021/12/30 07:51:34;;;;;;;67.70;29.07;;;;;;;-2.48;75.09;101707.75;1775142;80;25759;-61
2021/12/30 07:54:00;;;;;;;70.85;30.77;;;;;;;-2.45;74.36;101704.60;1775256;80;25798;-58
2021/12/30 07:56:27;;;;;;;66.07;29.67;;;;;;;-2.40;74.38;101712.42;1775181;80;27481;-57
2021/12/30 07:58:54;;;;;;;70.65;28.90;;;;;;;-2.35;74.52;101709.23;1775349;79;26337;-58
2021/12/30 08:01:21;;;;;;;68.83;27.45;;;;;;;-2.27;74.22;101713.90;1775184;80;25798;-57
2021/12/30 08:03:48;;;;;;;64.37;26.87;;;;;;;-2.27;73.81;101708.63;1775228;80;25699;-58
2021/12/30 08:06:15;;;;;;;53.50;24.82;;;;;;;-2.24;73.53;101709.89;1775293;80;25474;-59
2021/12/30 08:08:42;;;;;;;62.95;25.05;;;;;;;-2.18;73.92;101711.97;1775202;80;27469;-58
2021/12/30 08:11:13;;;;;;;63.00;28.55;;;;;;;-2.11;74.14;101712.30;1775255;80;25799;-58
2021/12/30 08:13:42;;;;;;;62.13;27.98;;;;;;;-2.12;72.87;101710.55;1744674;80;25734;-59
2021/12/30 08:16:12;;;;;;;61.28;27.58;;;;;;;-2.15;72.96;101704.87;1774593;80;25791;-59
2021/12/30 08:18:38;;;;;;;59.30;26.93;;;;;;;-2.13;73.28;101708.35;1775427;80;25788;-59
2021/12/30 08:21:05;;;;;;;57.40;24.60;;;;;;;-2.04;73.41;101713.90;1775259;80;27548;-58
2021/12/30 08:23:35;;;;;;;63.98;28.38;;;;;;;-2.04;73.44;101715.22;1775032;80;25682;-58
2021/12/30 08:26:04;;;;;;;51.05;22.30;;;;;;;-2.02;73.06;101715.17;1775070;80;25535;-57
2021/12/30 08:28:32;;;;;;;55.90;24.12;;;;;;;-2.08;72.66;101705.62;1775743;80;26198;-58
2021/12/30 08:31:02;;;;;;;61.73;26.95;;;;;;;-2.11;72.65;101711.83;1775131;80;25813;-58
2021/12/30 08:33:29;;;;;;;58.17;25.25;;;;;;;-2.12;72.28;101728.55;1775364;80;27926;-58
2021/12/30 08:35:56;;;;;;;64.90;26.70;;;;;;;-2.09;72.77;101731.13;1775017;80;25730;-58
2021/12/30 08:38:23;;;;;;;53.75;21.82;;;;;;;-2.02;72.68;101729.67;1775283;80;25691;-58
2021/12/30 08:40:49;;;;;;;66.92;27.48;;;;;;;-2.08;72.02;101726.72;1775365;80;26365;-58
2021/12/30 08:43:16;;;;;;;66.22;27.82;;;;;;;-2.12;72.60;101727.69;1751740;79;25751;-58
2021/12/30 08:45:45;;;;;;;65.87;26.57;;;;;;;-2.07;73.07;101728.02;1742901;82;27478;-59
2021/12/30 08:48:13;;;;;;;65.12;27.35;;;;;;;-2.02;73.25;101725.29;1754805;81;25731;-58
2021/12/30 08:50:40;;;;;;;71.87;27.58;;;;;;;-1.97;73.32;101731.79;1761065;81;25643;-57
2021/12/30 08:53:09;;;;;;;62.48;26.23;;;;;;;-1.89;72.98;101729.86;1772762;80;25471;-57
2021/12/30 08:55:37;;;;;;;57.23;23.50;;;;;;;-1.82;72.51;101723.97;1774758;80;25786;-57
2021/12/30 08:58:04;;;;;;;66.05;26.80;;;;;;;-1.82;72.40;101721.34;1774974;80;27441;-57
2021/12/30 09:00:38;;;;;;;57.30;24.60;;;;;;;-1.84;71.98;101728.44;1774318;80;25739;-58
2021/12/30 09:03:08;;;;;;;52.65;22.15;;;;;;;-1.84;72.54;101725.34;1775390;80;32483;-57
2021/12/30 09:05:36;;;;;;;53.15;23.12;;;;;;;-1.83;72.02;101728.39;1775223;80;25488;-58
2021/12/30 09:08:05;;;;;;;59.42;24.40;;;;;;;-1.89;71.57;101727.22;1775546;80;25807;-56
2021/12/30 09:10:37;;;;;;;64.87;26.23;;;;;;;-2.02;71.77;101721.34;1775253;80;26881;-57
2021/12/30 09:13:04;;;;;;;74.58;28.62;;;;;;;-2.07;71.99;101721.43;1774883;80;25815;-57
2021/12/30 09:15:33;;;;;;;74.80;28.52;;;;;;;-2.08;72.30;101721.44;1775620;80;26000;-58
2021/12/30 09:18:01;;;;;;;65.03;26.87;;;;;;;-1.98;72.57;101719.50;1775022;80;25826;-58
2021/12/30 09:20:28;;;;;;;61.60;25.60;;;;;;;-1.95;72.62;101722.05;1774841;80;25952;-58
2021/12/30 09:22:56;;;;;;;74.65;27.80;;;;;;;-1.94;72.63;101719.84;1762112;80;27492;-58
2021/12/30 09:25:25;;;;;;;60.78;26.23;;;;;;;-1.94;72.30;101727.75;1771017;80;25880;-58
2021/12/30 09:27:55;;;;;;;60.95;25.50;;;;;;;-1.98;72.17;101724.77;1775142;80;25573;-59
2021/12/30 09:30:25;;;;;;;90.53;36.17;;;;;;;-1.95;72.21;101726.89;1775349;80;26120;-59
2021/12/30 09:32:56;;;;;;;86.90;35.48;;;;;;;-1.92;72.53;101728.59;1772434;79;25834;-58
2021/12/30 09:35:26;;;;;;;74.47;29.95;;;;;;;-1.92;72.30;101729.44;1777020;80;27490;-58
2021/12/30 09:37:54;;;;;;;66.05;27.65;;;;;;;-1.86;72.27;101726.28;1781647;80;26212;-57
2021/12/30 09:40:24;;;;;;;72.10;28.73;;;;;;;-1.90;72.36;101728.12;1781859;80;25754;-59
2021/12/30 09:43:01;;;;;;;67.80;28.25;;;;;;;-1.91;72.32;101725.05;1787626;80;25767;-58
2021/12/30 09:45:23;;;;;;;58.83;25.52;;;;;;;-1.86;72.63;101739.47;1786525;80;25914;-59
2021/12/30 09:47:56;;;;;;;63.45;23.65;;;;;;;-1.87;72.00;101742.53;1787750;80;27459;-59
2021/12/30 09:50:30;;;;;;;59.90;25.05;;;;;;;-1.93;71.77;101748.80;1787378;80;25788;-57
2021/12/30 09:53:00;;;;;;;63.23;26.23;;;;;;;-2.02;71.93;101747.70;1782963;80;25746;-58
2021/12/30 09:55:27;;;;;;;69.62;26.95;;;;;;;-2.05;72.36;101751.25;1765713;81;26302;-58
2021/12/30 09:57:54;;;;;;;66.77;28.38;;;;;;;-2.13;72.26;101754.95;1801116;79;25768;-58
2021/12/30 10:00:23;;;;;;;66.45;27.58;;;;;;;-2.16;72.60;101765.11;1793608;79;27516;-57
2021/12/30 10:02:51;;;;;;;69.87;29.98;;;;;;;-2.14;72.76;101757.16;1800565;79;25783;-58
2021/12/30 10:05:23;;;;;;;66.50;27.82;;;;;;;-2.17;72.93;101759.42;1800843;78;25645;-59
2021/12/30 10:07:50;;;;;;;59.83;25.12;;;;;;;-2.10;73.29;101762.34;1800809;79;25775;-57
2021/12/30 10:10:36;;;;;;;62.05;26.65;;;;;;;-1.97;73.65;101759.48;1776162;79;25817;-59
2021/12/30 10:13:22;;;;;;;54.08;24.25;;;;;;;-1.89;73.42;101766.31;1800724;79;27505;-59
2021/12/30 10:15:54;;;;;;;58.52;26.12;;;;;;;-1.81;73.16;101773.20;1796405;79;25946;-59
2021/12/30 10:18:24;;;;;;;57.90;24.20;;;;;;;-1.76;72.51;101767.39;1800835;79;25720;-58
2021/12/30 10:20:54;;;;;;;59.10;23.55;;;;;;;-1.77;72.40;101765.19;1789370;79;26149;-58
2021/12/30 10:23:27;;;;;;;58.48;24.67;;;;;;;-1.75;72.04;101762.07;1786036;79;25718;-59
2021/12/30 10:25:58;;;;;;;60.05;25.97;;;;;;;-1.72;72.04;101756.32;1787100;79;28189;-58
2021/12/30 10:28:35;;;;;;;55.23;25.27;;;;;;;-1.74;71.92;101740.50;1786326;80;53772;-58
2021/12/30 10:31:16;;;;;;;62.00;24.82;;;;;;;-1.67;72.50;101738.17;1768443;80;25840;-59
2021/12/30 10:34:04;;;;;;;57.80;24.85;;;;;;;-1.57;72.76;101743.64;1778013;79;26193;-58
2021/12/30 10:36:35;;;;;;;58.85;24.82;;;;;;;-1.51;72.57;101750.55;1783402;79;25856;-58
2021/12/30 10:39:26;;;;;;;53.50;22.58;;;;;;;-1.41;72.66;101747.27;1792852;79;27656;-58
2021/12/30 10:42:11;;;;;;;58.38;24.63;;;;;;;-1.36;72.23;101740.10;1764554;79;26502;-58
2021/12/30 10:45:04;;;;;;;50.92;22.62;;;;;;;-1.23;72.53;101734.55;1770199;80;25821;-59
2021/12/30 10:47:35;;;;;;;47.88;21.68;;;;;;;-1.10;71.90;101732.02;1764068;80;25558;-57
2021/12/30 10:50:09;;;;;;;48.58;21.30;;;;;;;-1.00;71.73;101735.31;1760444;80;25764;-59
2021/12/30 10:52:54;;;;;;;44.27;21.70;;;;;;;-0.95;71.40;101732.09;1779143;80;27438;-59
2021/12/30 10:55:24;;;;;;;61.02;25.32;;;;;;;-1.01;70.17;101725.65;1769754;79;25768;-58
2021/12/30 10:57:53;;;;;;;66.10;26.12;;;;;;;-1.12;69.95;101720.17;1771679;79;26001;-59
2021/12/30 11:00:33;;;;;;;64.82;27.70;;;;;;;-1.25;69.77;101717.41;1771912;80;26463;-59
2021/12/30 11:03:24;;;;;;;56.90;23.62;;;;;;;-1.36;70.17;101726.05;1762545;80;25810;-58
2021/12/30 11:06:18;;;;;;;64.32;25.77;;;;;;;-1.39;70.00;101720.83;1768408;80;27450;-58
2021/12/30 11:08:49;;;;;;;57.85;24.65;;;;;;;-1.57;70.25;101717.72;1773609;80;25768;-57
2021/12/30 11:11:26;;;;;;;64.45;25.77;;;;;;;-1.66;70.74;101722.73;1765271;79;25887;-57
2021/12/30 11:14:06;;;;;;;56.10;25.25;;;;;;;-1.70;70.89;101722.86;1762331;80;25721;-58
2021/12/30 11:16:59;;;;;;;51.53;22.75;;;;;;;-1.68;71.23;101724.99;1775458;80;25729;-59
2021/12/30 11:19:30;;;;;;;61.30;25.55;;;;;;;-1.68;71.05;101728.95;1762751;79;27463;-59